This site, now in its 15th season, is a labour of love and fun from one of Ottawa's most avid time trialists and number crunchers. It adheres to and is permitted by the laws of Canada, promotes the objectives of every bicycle club whose results are shown, and is donated free of charge by myself for your enjoyment and usage. If you would like results from series you ride in to be shown here, give me (celia@drmath.ca) a shout!


Index Page
ATT OTT WTT AATT CFCTT VVVTT
Help resultformat:
Case-sensitive

OBC Open TT Series - 2018-Jun-28 - 15km (Rockliffe Pkwy)

Ottawa Weather (18:00): Mainly Sunny. Temp.erature: 24.9, Wind: SW 14km/h, Humidex: 31, Relative humidity: 65%, Dew point: 18°C, Pressure: 100.8kPa, Visibility: 24km.
Ottawa Weather (19:00): Mainly Sunny. Temp.erature: 24.8, Wind: WSW 14km/h, Humidex: 31, Relative humidity: 64%, Dew point: 18°C, Pressure: 100.8kPa, Visibility: 24km.
Ottawa Weather (20:00): Mainly Sunny. Temp.erature: 23.8, Wind: WSW 8km/h, Humidex: 30, Relative humidity: 68%, Dew point: 18°C, Pressure: 100.8kPa, Visibility: 24km.

Send photos with description (when/where/what) of yourself on or off of bike to celia@drmath.ca

 
 

BESTS?
 
1 Sherboneau, Mark RWR 19:22 46.472 1/55 VBM 1/7 0.9821
2 Toppings, Connor TLD 19:24 46.392 2/55 SEM 1/5  
3 Moon, Clay RWR 20:14 44.481 3/55 SEM 2/5 1.1970
4 Pérès, Erwan IND 20:31 43.867 4/55 VBM 2/7 0.9806
5 Martins, Alex OBC 20:44 43.408 5/55 VBM 3/7 1.1125
6 Brodeur, Martin OBC 20:46 43.339 6/55 VBM 4/7 0.9158
7 Boers, Daniel OBC 20:50 43.200 7/55 SEM 3/5  
8 Harrington, Benjamin OBC 20:58 42.925 8/55 CAM 1/2 1.0192
9 Mullington, Chris WQW 21:04 42.722 9/55 VDM 1/7 0.9718
10 Purificati, Justin RWR 21:13 42.419 10/55 SEM 4/5 0.6920
11 Page, Graham OBC/NTF 21:16 42.320 11/55 VAM 1/2 1.0846
12 Lafleur, Guillaume OBC 21:22 42.122 12/55 VAM 2/2 0.9722
13 Gelinas, Brandon IND 21:28 41.925 13/55 SEM 5/5 1.0282
14 Campbell, Colin  OBC 21:38 41.602 14/55 VCM 1/11 1.0326
15 Lacroix, Jacob OBC 21:40 41.538 15/55 JUM 1/3 1.0756
16 Girard, Nicolas OBC 22:03 40.816 16/55 CAM 2/2 1.0719
17 Budgell, Glen  OBC 22:07 40.693 17/55 VDM 2/7 0.9865
18 Till, Michael WQW 22:08 40.663 18/55 VCM 2/11 1.0228
19 Holt, Doug OBC 22:13 40.510 19/55 VCM 3/11 0.9622
Y 20 Clermont, Nicole IND 22:28 40.059 20/55 VCF 1/4  
21 Rivoche, Michael WQW 22:45 39.560 21/55 VDM 3/7 1.0400
22 Rudnicki, Dave WQW 22:49 39.445 22/55 VCM 4/11 1.0176
23 Lage, Rick OBC 22:53 39.330 23/55 VCM 5/11 1.1828
24 Molnar, Marie-Claude IND 22:54 39.301 24/55 VAF 1/1  
Y 25 Morvan, Jacques  OBC 22:58 39.187 25/55 VEM 1/4 1.0464
26 Posthuma, Hans  OBC 23:13 38.765 26/55 VDM 4/7 1.0392
27 Meyer, Lisa  EUR 23:17 38.654 27/55 VCF 2/4 1.0569
28 Deschamps, Martin WQW 23:18 38.627 28/55 VBM 5/7 1.0347
29 Deavy, Carol  OBC 23:37 38.109 29/55 VCF 3/4 1.0256
Omura, Tommy OBC 23:37 38.109 29/55 JUM 2/3 1.0278
31 Moerman, Bram  OBC 23:41 38.001 31/55 VEM 2/4 1.0255
32 Dumas, Dominik OBC 23:42 37.975 32/55 JUM 3/3 1.0127
33 Tkalec, Heather  EUR 23:46 37.868 33/55 VBF 1/1 1.0362
34 Gilchrist, Ryan  OBC 24:01 37.474 34/55 VCM 6/11 1.0315
35 Courtman, David OBC 24:02 37.448 35/55 VDM 5/7 1.1596
36 Davis, Doug OBC 24:03 37.422 36/55 VCM 7/11 1.0898
37 Véronneau, Marc OBC 24:17 37.062 37/55 VCM 8/11 1.1466
38 Markel, Dan OBC 24:37 36.561 38/55 VBM 6/7 1.0184
39 Williams, Mallory OBC 24:50 36.242 39/55 CAF 1/1  
40 Imbrogno, Giorgio  OBC 24:56 36.096 40/55 VDM 6/7 1.1735
41 Balint, John OBC 24:59 36.024 41/55 VEM 3/4 1.5372
42 Martins, Henrique CDO 25:03 35.928 42/55 MIM 1/2 0.9801
43 Boulanger, Gaetan  IND 25:09 35.785 43/55 VEM 4/4 0.9607
44 Gustyn, Andrew EUR 25:12 35.714 44/55 VCM 9/11  
45 Gervais, Dominique OBC 25:35 35.179 45/55 JUF 1/2 1.0000
46 Dumas, Marcel OBC 25:45 34.951 46/55 VCM 10/11 0.9317
47 Pham, Doug WQW 25:54 34.749 47/55 VCM 11/11 0.9619
48 Duarte, Filipe CDO 26:06 34.483 48/55 PWM 1/2  
49 Levi, Cheryl OBC 26:15 34.286 49/55 VCF 4/4  
50 Hauschildt, Gunter OBC 26:19 34.199 50/55 VBM 7/7 0.9606
51 McInnis, Celia  OBC 26:55 33.437 51/55 VDF 1/1 1.0453
52 Tardif, Magalie OBC 27:08 33.170 52/55 JUF 2/2 1.0853
53 Monette, Gary WQW 27:43 32.471 53/55 VDM 7/7 1.0383
54 Berthelot, Denis OBC 30:59 29.048 54/55 PWM 2/2 0.8779
55 Sherboneau, Derek OBC 33:18 27.027 55/55 MIM 2/2 0.9925
 
Average Speed of all of the above 55 finishes (825km in 21:39:05):38.104
>>>Average of the Average Speeds for these 55 finishes38.530<<<
 

The number of data records shown above is 55
The server processing of your query took: 0 wallclock secs ( 0.08 usr + 0.00 sys = 0.08 CPU)

Thanks to our Helpers: Mark Manners, Alex McKnight, Peter Tregunno, Marc Véronneau

     


Mar 30 (Good Friday)
May 1 (10km) May 3 May 8 (10km) May 10 May 15 (10km) May 17 May 22 (10km) May 24 May 29 (10km) May 31
Jun 5 Jun 5 Jun 7 Jun 12 Jun 12 Jun 14 Jun 17 (40km) Jun 19 Jun 19 Jun 21 Jun 26 Jun 26
  Jun 28  
Jul 3 Jul 3 Jul 5 Jul 8 (40km) Jul 10 Jul 10 Jul 12 Jul 17 Jul 17 Jul 19 Jul 24 Jul 24 Jul 26 Jul 31 Jul 31
Aug 2 Aug 5 (40km) Aug 7 Aug 7 Aug 9 Aug 14 Aug 14 Aug 16 Aug 21 Aug 21 Aug 23 Aug 28 Aug 28 (Invitational) Aug 30#1 (Eddie Merckx) Aug 30#2 (With Aero)
Sep 2 (40km) Sep 4 Sep 6 Sep 11 Sep 13 Sep 18

OTT Rankings
Best       Best by category
WTT Rankings for All Participants
5 Best Speeds (≥3 15km, ≤1 10km)     5 Best Speeds (≥3 15km, ≤1 10km) by category
OTT Best Three 15km Rankings
Overall     by category     age-Hcap Female   age-Hcap Male
Other years
TT Calculator All TT People All TT events
ABC Home VVV Home
CKAP GOLD MEDAL
Other Links

Note: OTT data from 2003 through 2006-Apr-14 and 2007-Apr-06-? and WTT from 2008-? is taken from the official OBC site.

Please send your comments and suggestions to: Celia McInnis
Copyright © 1998-2011 Celia McInnis. All rights reserved. Links are welcomed.